Time;durP1;ratioP1;P1;durP2;ratioP2;P2;SDS_P1;SDS_P2;PMS_P1;PMS_P2;Temp;Humidity;BMP_temperature;BMP_pressure;BME280_temperature;BME280_humidity;BME280_pressure;Samples;Min_cycle;Max_cycle;Signal;HPM_P1;HPM_P2
2021/08/31 00:02:18;;;;;;;10.40;7.80;;;;;;;16.71;70.86;102482.66;10492860;28;20588;-82
2021/08/31 00:07:21;;;;;;;26.67;10.07;;;;;;;16.71;70.70;102488.13;10473580;28;20020;-82
2021/08/31 00:12:22;;;;;;;15.35;8.70;;;;;;;16.69;70.76;102484.75;10475198;28;20165;-82
2021/08/31 00:17:23;;;;;;;24.02;10.02;;;;;;;16.70;70.66;102487.28;10494258;28;20454;-82
2021/08/31 00:22:23;;;;;;;8.68;7.38;;;;;;;16.71;70.51;102479.91;10496328;28;20376;-82
2021/08/31 00:27:23;;;;;;;14.50;8.68;;;;;;;16.61;70.59;102477.53;10493244;28;20037;-83
2021/08/31 00:32:26;;;;;;;19.98;9.73;;;;;;;16.70;70.87;102498.22;10491545;28;20060;-82
2021/08/31 00:37:29;;;;;;;25.70;9.27;;;;;;;16.15;70.69;102400.66;10472218;28;20047;-82
2021/08/31 00:42:29;;;;;;;11.43;8.82;;;;;;;16.64;70.57;102493.56;10491266;28;20360;-82
2021/08/31 00:47:30;;;;;;;12.35;8.30;;;;;;;16.49;70.50;102481.84;10493049;28;20033;-82
2021/08/31 00:52:30;;;;;;;21.33;9.32;;;;;;;16.41;70.74;102482.00;10474941;28;20101;-81
2021/08/31 00:57:31;;;;;;;15.48;10.30;;;;;;;16.55;71.12;102500.22;10490617;28;20420;-82
2021/08/31 01:02:31;;;;;;;14.48;9.35;;;;;;;16.53;70.52;102502.31;10491914;28;20470;-83
2021/08/31 01:07:32;;;;;;;13.88;8.23;;;;;;;16.14;69.60;102448.13;10491909;28;20028;-82
2021/08/31 01:12:32;;;;;;;16.13;8.25;;;;;;;16.44;70.96;102500.75;10495053;28;20047;-82
2021/08/31 01:17:34;;;;;;;16.17;9.60;;;;;;;16.37;71.14;102510.78;10495157;28;20036;-83
2021/08/31 01:22:34;;;;;;;24.05;9.43;;;;;;;16.25;71.03;102472.22;10492904;28;20150;-84
2021/08/31 01:27:35;;;;;;;12.18;8.48;;;;;;;16.43;71.13;102501.78;10493910;28;20222;-83
2021/08/31 01:32:35;;;;;;;23.20;8.32;;;;;;;16.44;71.00;102511.69;10493194;28;20136;-82
2021/08/31 01:37:36;;;;;;;36.58;9.52;;;;;;;16.41;71.01;102514.81;10492803;28;20435;-83
2021/08/31 01:42:37;;;;;;;18.00;8.43;;;;;;;15.99;70.77;102445.50;10491433;28;20155;-83
2021/08/31 01:47:38;;;;;;;16.10;8.30;;;;;;;16.43;70.87;102519.06;10475185;28;20222;-82
2021/08/31 01:52:38;;;;;;;20.60;10.63;;;;;;;16.35;70.88;102510.97;10495106;28;20067;-82
2021/08/31 01:57:39;;;;;;;14.68;9.50;;;;;;;16.32;71.23;102519.56;10496820;28;20124;-82
2021/08/31 02:02:39;;;;;;;10.90;7.95;;;;;;;16.38;70.50;102534.34;10492810;28;20116;-82
2021/08/31 02:07:40;;;;;;;15.05;8.77;;;;;;;16.31;70.72;102528.84;10493063;28;20123;-83
2021/08/31 02:12:40;;;;;;;35.60;11.80;;;;;;;16.29;71.53;102519.97;10492071;28;20040;-82
2021/08/31 02:17:41;;;;;;;10.90;9.57;;;;;;;16.30;71.49;102529.84;10492293;28;20366;-82
2021/08/31 02:22:41;;;;;;;12.93;9.00;;;;;;;16.11;71.55;102497.72;10491933;28;20060;-82
2021/08/31 02:27:41;;;;;;;20.77;10.50;;;;;;;16.30;71.18;102529.84;10491942;28;20051;-82
2021/08/31 02:32:45;;;;;;;19.70;11.15;;;;;;;16.22;71.50;102538.19;10493227;28;20124;-82
2021/08/31 02:37:45;;;;;;;17.85;11.93;;;;;;;15.95;71.22;102475.09;10498075;28;20037;-82
2021/08/31 02:42:46;;;;;;;19.67;10.65;;;;;;;16.25;71.19;102527.72;10498600;28;20474;-82
2021/08/31 02:47:46;;;;;;;16.75;9.50;;;;;;;16.21;71.15;102525.59;10499407;28;20094;-82
2021/08/31 02:52:48;;;;;;;23.95;11.98;;;;;;;15.85;71.28;102469.06;10500595;28;20047;-82
2021/08/31 02:57:49;;;;;;;13.27;10.02;;;;;;;16.17;71.56;102516.06;10480890;28;20191;-81
2021/08/31 03:02:49;;;;;;;26.17;12.70;;;;;;;15.99;71.31;102492.78;10480173;28;20029;-82
2021/08/31 03:07:52;;;;;;;24.60;12.05;;;;;;;15.75;70.90;102461.19;10496130;28;20036;-82
2021/08/31 03:12:52;;;;;;;38.65;12.80;;;;;;;15.80;71.02;102475.13;10496802;28;20072;-81
2021/08/31 03:17:53;;;;;;;13.90;11.50;;;;;;;16.10;71.43;102518.72;10495672;28;20039;-81
2021/08/31 03:22:53;;;;;;;28.83;13.10;;;;;;;16.12;71.76;102521.28;10479018;28;20044;-81
2021/08/31 03:27:54;;;;;;;28.77;13.73;;;;;;;15.93;71.62;102493.56;10496206;28;20109;-82
2021/08/31 03:32:54;;;;;;;20.13;10.73;;;;;;;16.11;70.93;102522.31;10494080;28;20076;-82
2021/08/31 03:37:55;;;;;;;18.58;10.75;;;;;;;15.81;71.48;102485.00;10478515;28;20085;-81
2021/08/31 03:42:55;;;;;;;36.10;10.43;;;;;;;16.03;71.23;102535.06;10495161;28;20128;-82
2021/08/31 03:47:56;;;;;;;26.08;12.73;;;;;;;16.02;70.48;102538.84;10493843;28;20454;-82
2021/08/31 03:52:56;;;;;;;25.77;12.48;;;;;;;16.03;71.16;102540.53;10495975;28;20131;-82
2021/08/31 03:57:57;;;;;;;18.27;12.40;;;;;;;16.02;70.71;102532.53;10495040;28;20042;-82
2021/08/31 04:02:57;;;;;;;15.05;12.55;;;;;;;15.96;71.00;102538.78;10497671;28;20555;-82
2021/08/31 04:07:57;;;;;;;26.10;15.77;;;;;;;15.93;71.07;102540.00;10500795;28;20032;-82
2021/08/31 04:12:58;;;;;;;36.22;15.70;;;;;;;15.90;70.88;102545.84;10501713;28;20085;-82
2021/08/31 04:17:58;;;;;;;35.50;13.68;;;;;;;15.81;70.96;102545.09;10500597;28;20032;-82
2021/08/31 04:22:59;;;;;;;24.55;14.68;;;;;;;15.88;70.92;102552.53;10500285;28;20033;-81
2021/08/31 04:27:59;;;;;;;20.83;12.70;;;;;;;15.83;70.09;102561.31;10501559;28;20517;-81
2021/08/31 04:33:06;;;;;;;24.00;13.13;;;;;;;15.86;70.51;102568.25;10501337;28;20040;-82
2021/08/31 04:38:06;;;;;;;34.42;13.77;;;;;;;15.75;70.76;102550.50;10500330;28;20400;-82
2021/08/31 04:43:09;;;;;;;27.83;14.15;;;;;;;15.80;70.15;102567.16;10500591;28;20131;-81
2021/08/31 04:48:10;;;;;;;22.60;14.60;;;;;;;15.75;70.39;102577.81;10438770;28;20053;-82
2021/08/31 04:53:10;;;;;;;21.98;12.88;;;;;;;15.17;70.40;102505.81;10499532;28;20160;-81
2021/08/31 04:58:10;;;;;;;22.38;12.82;;;;;;;15.71;70.48;102580.06;10481398;28;20040;-82
2021/08/31 05:03:11;;;;;;;17.63;12.77;;;;;;;15.72;70.64;102570.00;10500762;28;20510;-80
2021/08/31 05:08:11;;;;;;;16.42;12.82;;;;;;;15.71;70.28;102568.31;10497191;28;20048;-82
2021/08/31 05:13:12;;;;;;;23.10;12.35;;;;;;;15.77;70.13;102568.38;10498269;28;20115;-80
2021/08/31 05:18:12;;;;;;;21.15;12.38;;;;;;;15.81;70.29;102577.03;10498633;28;20032;-81
2021/08/31 05:23:12;;;;;;;22.98;12.35;;;;;;;15.88;70.28;102577.13;10498203;28;20044;-81
2021/08/31 05:28:13;;;;;;;17.85;10.88;;;;;;;15.87;70.40;102570.81;10498675;28;20110;-81
2021/08/31 05:33:13;;;;;;;29.98;11.07;;;;;;;16.02;69.97;102587.19;10480958;28;20032;-81
2021/08/31 05:38:14;;;;;;;24.60;10.73;;;;;;;16.08;70.39;102591.00;10497071;28;20131;-81
2021/08/31 05:43:14;;;;;;;15.85;10.55;;;;;;;16.18;70.13;102591.56;10498704;28;20057;-81
2021/08/31 05:48:15;;;;;;;12.20;9.88;;;;;;;16.12;70.23;102554.09;10498833;28;20029;-81
2021/08/31 05:53:15;;;;;;;28.05;12.15;;;;;;;17.33;69.33;102576.78;10498349;28;20032;-81
2021/08/31 05:58:15;;;;;;;23.80;11.00;;;;;;;18.59;67.04;102590.94;10498006;28;20094;-81
2021/08/31 06:03:16;;;;;;;16.45;11.27;;;;;;;19.13;66.25;102562.44;10499013;28;20433;-80
2021/08/31 06:08:16;;;;;;;16.83;10.13;;;;;;;20.12;64.97;102605.25;10494721;28;20373;-81
2021/08/31 06:13:17;;;;;;;18.67;10.18;;;;;;;20.70;63.99;102608.91;10497969;28;20056;-81
2021/08/31 06:18:17;;;;;;;14.43;8.43;;;;;;;21.33;63.45;102617.88;10496551;28;20154;-81
2021/08/31 06:23:18;;;;;;;14.48;7.57;;;;;;;21.63;62.78;102625.41;10496661;28;20120;-81
2021/08/31 06:28:19;;;;;;;9.18;5.97;;;;;;;22.25;62.26;102617.03;10498803;28;20123;-80
2021/08/31 06:33:19;;;;;;;14.93;7.63;;;;;;;22.09;61.21;102581.78;10497391;28;20373;-81
2021/08/31 06:38:20;;;;;;;9.95;7.40;;;;;;;22.68;60.54;102632.53;10495712;28;20380;-81
2021/08/31 06:43:20;;;;;;;7.38;5.72;;;;;;;22.91;59.92;102606.84;10497109;28;20057;-82
2021/08/31 06:48:21;;;;;;;18.20;5.88;;;;;;;22.72;60.23;102639.28;10497348;28;20494;-82
2021/08/31 06:53:21;;;;;;;15.88;7.60;;;;;;;23.58;58.52;102593.53;10479643;28;20036;-82
2021/08/31 06:58:43;;;;;;;7.68;5.03;;;;;;;24.66;59.73;102634.41;10495658;28;20068;-82
2021/08/31 07:03:44;;;;;;;18.80;6.43;;;;;;;25.01;58.98;102642.47;10497066;28;20098;-81
2021/08/31 07:08:44;;;;;;;11.48;6.38;;;;;;;25.75;55.71;102640.28;10497332;28;20106;-82
2021/08/31 07:13:44;;;;;;;16.10;5.90;;;;;;;26.07;52.89;102644.28;10496225;28;20455;-82
2021/08/31 07:18:45;;;;;;;8.05;5.60;;;;;;;26.30;53.59;102651.50;10477417;28;20036;-83
2021/08/31 07:23:45;;;;;;;4.45;3.92;;;;;;;26.59;55.01;102643.78;10500062;28;20123;-82
2021/08/31 07:28:46;;;;;;;9.73;4.82;;;;;;;26.28;53.52;102648.16;10499299;28;20120;-82
2021/08/31 07:33:48;;;;;;;14.38;4.50;;;;;;;25.88;51.52;102610.50;10497479;28;20399;-82
2021/08/31 07:38:49;;;;;;;11.65;3.72;;;;;;;26.43;51.95;102645.53;10499491;28;20035;-82
2021/08/31 07:43:50;;;;;;;4.32;3.47;;;;;;;26.41;50.86;102648.56;10498999;28;20075;-82
2021/08/31 07:48:50;;;;;;;6.80;4.85;;;;;;;25.86;52.11;102646.00;10498164;28;20104;-82
2021/08/31 07:53:50;;;;;;;12.63;4.15;;;;;;;25.00;55.52;102646.34;10498927;28;20036;-81
2021/08/31 07:58:51;;;;;;;5.70;5.13;;;;;;;25.09;53.69;102649.56;10480001;28;20127;-81
2021/08/31 08:03:51;;;;;;;10.80;5.25;;;;;;;25.03;58.88;102665.25;10497432;28;20044;-82
2021/08/31 08:08:52;;;;;;;12.30;5.38;;;;;;;25.48;57.64;102651.28;10495859;28;20089;-82
2021/08/31 08:13:52;;;;;;;6.10;5.28;;;;;;;26.28;55.96;102664.81;10498254;28;20083;-82
2021/08/31 08:18:53;;;;;;;10.82;4.07;;;;;;;26.66;51.25;102666.63;10497097;28;20094;-82
2021/08/31 08:23:53;;;;;;;8.10;5.35;;;;;;;25.80;52.35;102656.16;10497424;28;20036;-81
2021/08/31 08:28:54;;;;;;;8.48;5.00;;;;;;;26.17;53.52;102655.53;10497070;28;20462;-81
2021/08/31 08:33:54;;;;;;;7.07;3.80;;;;;;;26.54;49.36;102664.00;10497547;28;20064;-82
2021/08/31 08:38:54;;;;;;;18.83;4.70;;;;;;;26.41;49.89;102661.63;10494852;28;20039;-82
2021/08/31 08:43:59;;;;;;;12.10;5.25;;;;;;;25.95;51.06;102672.22;10496100;28;20095;-81
2021/08/31 08:48:59;;;;;;;4.15;3.70;;;;;;;26.43;51.96;102623.31;10476453;28;20060;-82
2021/08/31 08:54:00;;;;;;;14.73;5.07;;;;;;;27.50;52.31;102667.84;10494277;28;20471;-82
2021/08/31 08:59:01;;;;;;;6.13;3.22;;;;;;;27.55;49.49;102677.09;10488733;28;20032;-81
2021/08/31 09:10:13;;;;;;;10.90;4.55;;;;;;;27.02;52.72;102556.53;10367466;28;20033;-81
2021/08/31 09:15:20;;;;;;;16.50;5.85;;;;;;;27.64;47.02;102676.59;10471208;28;20040;-82
2021/08/31 09:26:40;;;;;;;8.90;3.72;;;;;;;29.53;47.67;102679.75;10477886;28;20112;-81
2021/08/31 09:31:55;;;;;;;27.58;5.43;;;;;;;29.97;56.31;102688.28;10484167;28;20029;-81
2021/08/31 09:36:55;;;;;;;5.18;4.20;;;;;;;30.90;42.92;102685.81;10483664;28;20451;-81
2021/08/31 09:41:56;;;;;;;6.22;5.13;;;;;;;31.45;41.53;102664.84;10484304;28;20143;-82
2021/08/31 09:47:03;;;;;;;3.45;2.80;;;;;;;31.68;43.04;102684.75;10468860;28;20144;-82
2021/08/31 09:52:14;;;;;;;7.53;3.90;;;;;;;29.84;44.35;102659.00;10469493;28;20044;-82
2021/08/31 09:57:31;;;;;;;3.17;2.80;;;;;;;28.49;46.97;102697.59;10485849;28;20123;-82
2021/08/31 10:02:31;;;;;;;;;;;;;;;27.49;52.80;102685.66;10490428;28;20398;-82
2021/08/31 10:07:32;;;;;;;6.60;4.28;;;;;;;26.98;47.07;102697.22;10489170;28;20014;-82
2021/08/31 10:12:32;;;;;;;8.68;4.60;;;;;;;27.96;50.53;102690.41;10471491;28;20052;-82
2021/08/31 10:17:32;;;;;;;9.82;5.68;;;;;;;27.75;48.42;102701.41;10487336;28;20108;-82
2021/08/31 10:22:33;;;;;;;6.65;5.07;;;;;;;27.30;47.05;102699.16;10470346;28;20217;-82
2021/08/31 10:27:41;;;;;;;9.25;5.03;;;;;;;27.19;46.49;102689.09;10487294;28;20036;-82
2021/08/31 10:32:42;;;;;;;11.27;4.78;;;;;;;27.05;46.76;102681.16;10487409;28;20076;-82
2021/08/31 10:37:46;;;;;;;3.85;3.53;;;;;;;27.08;51.87;102711.19;10487691;28;20041;-82
2021/08/31 10:42:47;;;;;;;5.57;4.25;;;;;;;27.59;47.27;102706.03;10487217;28;20052;-82
2021/08/31 10:47:47;;;;;;;16.05;5.90;;;;;;;27.49;49.64;102713.50;10486353;28;20116;-82
2021/08/31 10:52:56;;;;;;;14.25;3.75;;;;;;;27.32;49.61;102706.16;10489173;28;20037;-82
2021/08/31 10:58:08;;;;;;;6.70;4.78;;;;;;;26.49;52.47;102710.38;10496267;28;20048;-82
2021/08/31 11:03:09;;;;;;;7.03;4.65;;;;;;;26.52;50.13;102720.97;10478598;28;20040;-81
2021/08/31 11:08:09;;;;;;;6.15;4.70;;;;;;;27.30;48.75;102722.25;10495870;28;20481;-82
2021/08/31 11:13:16;;;;;;;7.77;3.97;;;;;;;27.89;49.28;102659.19;10494904;28;20040;-82
2021/08/31 11:18:19;;;;;;;8.90;5.00;;;;;;;28.13;47.12;102720.84;10496647;28;20399;-82
2021/08/31 11:23:21;;;;;;;8.70;4.85;;;;;;;28.31;45.74;102659.06;10497578;28;20126;-82
2021/08/31 11:28:27;;;;;;;4.88;4.38;;;;;;;28.99;46.68;102717.44;10478575;28;20056;-81
2021/08/31 11:33:43;;;;;;;6.30;4.20;;;;;;;28.08;53.68;102720.81;10478284;28;20042;-82
2021/08/31 11:39:15;;;;;;;10.95;4.97;;;;;;;26.81;49.39;102732.66;10496423;28;20075;-82
2021/08/31 11:44:21;;;;;;;5.57;5.05;;;;;;;25.93;51.39;102708.53;10491541;28;20053;-82
2021/08/31 11:49:26;;;;;;;16.33;5.03;;;;;;;26.21;48.80;102740.84;10496187;28;20104;-82
2021/08/31 11:54:28;;;;;;;7.53;4.03;;;;;;;26.92;48.17;102726.06;10496000;28;20033;-82
2021/08/31 11:59:45;;;;;;;16.80;4.95;;;;;;;28.21;50.57;102728.69;10495983;28;20039;-81
2021/08/31 12:05:07;;;;;;;11.10;4.78;;;;;;;29.11;48.90;102680.94;10478276;28;20088;-81
2021/08/31 12:10:09;;;;;;;10.55;3.90;;;;;;;30.05;42.91;102731.53;10493255;28;20429;-81
2021/08/31 12:15:10;;;;;;;7.45;5.18;;;;;;;28.48;44.48;102734.09;10496930;28;20110;-82
2021/08/31 12:20:23;;;;;;;8.32;3.67;;;;;;;28.87;48.72;102684.22;10477951;28;20182;-82
2021/08/31 12:25:24;;;;;;;9.73;4.68;;;;;;;29.60;45.31;102736.97;10494624;28;20037;-81
2021/08/31 12:30:38;;;;;;;13.32;5.50;;;;;;;30.47;49.20;102747.88;10493619;28;20056;-81
2021/08/31 12:35:46;;;;;;;9.73;3.03;;;;;;;29.08;50.73;102745.66;10493009;28;20035;-83
2021/08/31 12:41:03;;;;;;;4.38;3.97;;;;;;;28.02;49.92;102683.75;10492421;28;20052;-83
2021/08/31 12:46:04;;;;;;;6.60;4.13;;;;;;;29.68;44.49;102745.91;10491193;28;20048;-81
2021/08/31 12:51:06;;;;;;;14.25;4.65;;;;;;;28.70;45.05;102754.22;10490688;28;20165;-82
2021/08/31 12:56:08;;;;;;;14.57;6.32;;;;;;;28.59;46.94;102734.94;10491230;28;20048;-82
2021/08/31 13:01:17;;;;;;;10.00;4.13;;;;;;;27.97;51.73;102765.31;10492319;28;20097;-82
2021/08/31 13:06:40;;;;;;;6.72;2.53;;;;;;;27.75;50.19;102761.81;10472562;28;20039;-83
2021/08/31 13:11:45;;;;;;;12.25;4.47;;;;;;;28.13;45.22;102757.03;10492200;28;20028;-81
2021/08/31 13:16:46;;;;;;;21.70;4.10;;;;;;;27.76;46.77;102742.06;10488988;28;20071;-81
2021/08/31 13:21:47;;;;;;;3.35;2.38;;;;;;;27.73;46.00;102753.75;10471114;28;20067;-83
2021/08/31 13:26:48;;;;;;;24.65;3.38;;;;;;;27.15;47.11;102738.81;10489681;28;20113;-82
2021/08/31 13:31:49;;;;;;;11.13;3.97;;;;;;;26.62;48.11;102754.41;10490281;28;20224;-82
2021/08/31 13:36:50;;;;;;;10.25;4.22;;;;;;;26.35;50.45;102732.94;10459509;28;20497;-83
2021/08/31 13:41:55;;;;;;;12.50;3.47;;;;;;;25.82;49.37;102706.72;10492840;28;20052;-82
2021/08/31 13:46:57;;;;;;;17.83;4.15;;;;;;;25.70;50.90;102753.16;10494646;28;20522;-82
2021/08/31 13:51:58;;;;;;;10.40;4.90;;;;;;;25.37;51.90;102759.56;10494848;28;20060;-82
2021/08/31 13:56:58;;;;;;;8.20;2.78;;;;;;;25.44;49.08;102743.59;10492810;28;20098;-82
2021/08/31 14:01:59;;;;;;;9.05;3.97;;;;;;;25.27;51.09;102752.75;10494998;28;20040;-81
2021/08/31 14:07:00;;;;;;;10.55;3.78;;;;;;;25.10;50.38;102726.91;10495080;28;20085;-82
2021/08/31 14:12:00;;;;;;;16.83;4.18;;;;;;;24.88;50.00;102714.88;10493798;28;20071;-82
2021/08/31 14:17:02;;;;;;;7.60;3.45;;;;;;;24.33;49.23;102708.00;10475504;28;20137;-81
2021/08/31 14:22:03;;;;;;;10.63;3.70;;;;;;;24.32;51.93;102759.78;10493396;28;20106;-82
2021/08/31 14:27:05;;;;;;;4.68;3.05;;;;;;;24.40;50.73;102733.59;10492733;28;20037;-82
2021/08/31 14:32:05;;;;;;;4.70;2.78;;;;;;;24.16;52.80;102760.53;10482637;28;20052;-82
2021/08/31 14:37:06;;;;;;;7.25;3.38;;;;;;;23.86;54.73;102753.22;10498119;28;20464;-81
2021/08/31 14:42:34;;;;;;;7.55;3.33;;;;;;;23.72;55.72;102756.50;10511121;28;20197;-82
2021/08/31 14:47:35;;;;;;;4.18;3.33;;;;;;;22.97;53.00;102647.38;10489977;28;20052;-82
2021/08/31 14:52:35;;;;;;;7.85;3.13;;;;;;;22.30;53.21;102492.97;10520306;28;20127;-82
2021/08/31 14:57:51;;;;;;;13.15;3.05;;;;;;;22.77;54.15;102545.47;10539645;28;20126;-82
2021/08/31 15:02:52;;;;;;;9.95;3.72;;;;;;;22.48;53.02;102561.91;10521335;28;20138;-82
2021/08/31 15:07:52;;;;;;;5.40;3.50;;;;;;;23.58;53.85;102776.06;10519748;28;20036;-82
2021/08/31 15:12:53;;;;;;;5.13;2.67;;;;;;;22.81;53.60;102722.63;10519465;28;20114;-82
2021/08/31 15:18:04;;;;;;;7.85;2.10;;;;;;;22.51;57.57;102721.56;10538078;28;20222;-82
2021/08/31 15:23:07;;;;;;;4.20;3.58;;;;;;;22.05;55.92;102653.16;10535227;28;20102;-83
2021/08/31 15:28:08;;;;;;;10.13;3.42;;;;;;;22.76;54.43;102767.53;10536204;28;20035;-82
2021/08/31 15:33:08;;;;;;;12.07;3.13;;;;;;;22.32;55.72;102721.81;10536865;28;20047;-82
2021/08/31 15:38:12;;;;;;;2.72;2.22;;;;;;;22.47;56.92;102745.19;10517072;28;20828;-81
2021/08/31 15:43:13;;;;;;;8.77;3.40;;;;;;;22.62;55.44;102766.88;10501541;28;20056;-82
2021/08/31 15:48:13;;;;;;;11.88;3.03;;;;;;;22.25;57.81;102775.19;10536391;28;20089;-81
2021/08/31 15:59:10;;;;;;;12.77;3.00;;;;;;;21.98;56.03;102763.56;10535449;28;20028;-81
2021/08/31 16:04:30;;;;;;;13.43;4.10;;;;;;;21.02;59.89;102657.38;10535964;28;20032;-81
2021/08/31 16:09:31;;;;;;;10.65;3.15;;;;;;;20.81;57.53;102655.00;10533677;28;20047;-82
2021/08/31 16:14:31;;;;;;;11.80;4.00;;;;;;;21.11;59.24;102771.72;10534937;28;20123;-82
2021/08/31 16:20:16;;;;;;;9.82;4.00;;;;;;;19.42;60.15;102563.00;10514726;28;20028;-82
2021/08/31 16:25:25;;;;;;;13.90;3.88;;;;;;;20.50;59.17;102675.94;10509395;28;20063;-82
2021/08/31 16:36:07;;;;;;;6.70;3.78;;;;;;;20.27;56.92;102640.72;10503859;28;20044;-82
2021/08/31 16:41:19;;;;;;;5.13;3.45;;;;;;;20.16;59.53;102644.97;10513428;28;20096;-81
2021/08/31 16:46:20;;;;;;;7.80;4.05;;;;;;;20.84;58.63;102767.47;10497742;28;20066;-82
2021/08/31 16:51:20;;;;;;;9.00;3.67;;;;;;;19.97;59.75;102688.03;10514392;28;20054;-81
2021/08/31 16:56:23;;;;;;;5.13;3.65;;;;;;;20.56;58.91;102776.09;10532020;28;20039;-82
2021/08/31 17:01:24;;;;;;;11.13;4.45;;;;;;;20.01;58.43;102687.59;10533345;28;20383;-82
2021/08/31 17:06:59;;;;;;;10.43;4.47;;;;;;;19.11;60.99;102621.38;10498419;28;20063;-82
2021/08/31 17:12:03;;;;;;;7.70;3.50;;;;;;;20.48;59.48;102776.28;10535440;28;20441;-82
2021/08/31 17:17:03;;;;;;;16.20;4.60;;;;;;;20.46;59.73;102773.75;10536368;28;20452;-82
2021/08/31 17:22:07;;;;;;;8.77;4.00;;;;;;;19.95;59.76;102714.06;10516102;28;20047;-83
2021/08/31 17:27:07;;;;;;;4.82;3.42;;;;;;;20.10;59.89;102747.66;10518881;28;20426;-81
2021/08/31 17:32:08;;;;;;;14.90;4.50;;;;;;;20.10;60.86;102777.91;10517302;28;20123;-82
2021/08/31 17:37:08;;;;;;;12.85;4.03;;;;;;;19.95;59.62;102761.66;10534463;28;20040;-82
2021/08/31 17:42:09;;;;;;;4.68;3.28;;;;;;;20.04;61.06;102776.03;10540636;28;20139;-81
2021/08/31 17:47:09;;;;;;;4.60;3.25;;;;;;;19.79;60.77;102753.00;10557811;28;20040;-81
2021/08/31 17:52:18;;;;;;;6.72;4.28;;;;;;;20.03;59.81;102784.47;10575674;28;20063;-82
2021/08/31 17:57:18;;;;;;;6.80;3.13;;;;;;;20.00;60.26;102784.91;10574811;28;20058;-82
2021/08/31 18:02:19;;;;;;;12.13;4.70;;;;;;;19.82;60.70;102794.66;10557904;28;20048;-81
2021/08/31 18:07:19;;;;;;;9.30;4.55;;;;;;;19.39;60.22;102720.03;10539682;28;20050;-82
2021/08/31 18:12:20;;;;;;;9.57;4.28;;;;;;;19.62;60.95;102782.78;10538998;28;20063;-82
2021/08/31 18:17:21;;;;;;;7.75;3.58;;;;;;;19.82;60.48;102783.66;10575260;28;20092;-81
2021/08/31 18:22:21;;;;;;;19.15;5.18;;;;;;;19.85;60.50;102793.41;10557665;28;20044;-82
2021/08/31 18:27:22;;;;;;;4.10;3.08;;;;;;;19.70;60.71;102788.13;10574873;28;20415;-82
2021/08/31 18:32:22;;;;;;;3.28;2.88;;;;;;;19.41;60.98;102745.41;10575128;28;20145;-82
2021/08/31 18:37:23;;;;;;;5.53;2.97;;;;;;;19.68;61.09;102804.81;10542162;28;20332;-81
2021/08/31 18:42:23;;;;;;;8.15;3.40;;;;;;;19.38;60.20;102763.16;10578920;28;20056;-81
2021/08/31 18:47:24;;;;;;;9.65;3.45;;;;;;;19.47;61.56;102781.13;10578549;28;20475;-81
2021/08/31 18:52:25;;;;;;;12.02;3.53;;;;;;;19.58;60.77;102792.53;10575746;28;20464;-81
2021/08/31 18:57:25;;;;;;;6.15;2.33;;;;;;;19.58;60.77;102798.88;10576119;28;20036;-82
2021/08/31 19:02:26;;;;;;;10.90;3.75;;;;;;;19.57;60.95;102802.69;10559417;28;20422;-82
2021/08/31 19:07:29;;;;;;;13.60;4.25;;;;;;;19.54;60.91;102814.09;10575770;28;20066;-82
2021/08/31 19:12:29;;;;;;;10.15;3.70;;;;;;;19.59;59.96;102813.44;10557811;28;20104;-82
2021/08/31 19:17:30;;;;;;;7.65;3.33;;;;;;;19.58;61.06;102815.34;10565963;28;20381;-81
2021/08/31 19:22:30;;;;;;;6.95;3.58;;;;;;;19.66;60.98;102817.94;10584423;28;20428;-82
2021/08/31 19:27:31;;;;;;;8.88;3.30;;;;;;;19.57;60.81;102815.56;10583397;28;20081;-81
2021/08/31 19:32:34;;;;;;;12.27;4.68;;;;;;;19.61;60.49;102814.09;10583680;28;20460;-81
2021/08/31 19:37:35;;;;;;;7.03;4.22;;;;;;;19.64;60.19;102820.03;10581689;28;20092;-83
2021/08/31 19:42:38;;;;;;;15.25;4.85;;;;;;;19.73;60.14;102820.69;10564755;28;20051;-82
2021/08/31 19:47:39;;;;;;;14.68;3.88;;;;;;;19.25;60.07;102758.50;10564744;28;20063;-82
2021/08/31 19:52:40;;;;;;;5.78;2.63;;;;;;;19.72;60.30;102817.09;10564197;28;20089;-81
2021/08/31 19:57:43;;;;;;;13.73;3.80;;;;;;;19.74;60.31;102825.94;10580993;28;20114;-82
2021/08/31 20:02:44;;;;;;;9.38;3.55;;;;;;;19.79;59.84;102833.59;10580644;28;20032;-81
2021/08/31 20:07:45;;;;;;;9.65;4.50;;;;;;;19.58;59.79;102798.88;10544893;28;20491;-82
2021/08/31 20:12:45;;;;;;;11.70;3.28;;;;;;;19.81;59.41;102844.34;10544513;28;20119;-80
2021/08/31 20:17:45;;;;;;;10.38;3.60;;;;;;;19.81;60.14;102827.84;10580596;28;20036;-82
2021/08/31 20:22:46;;;;;;;22.48;5.57;;;;;;;19.60;62.21;102829.75;10578733;28;20165;-81
2021/08/31 20:27:46;;;;;;;7.22;4.28;;;;;;;19.56;59.99;102812.00;10578222;28;20042;-81
2021/08/31 20:33:39;;;;;;;;;;;;;;;;;;;;;
2021/08/31 20:38:40;;;;;;;7.22;4.90;;;;;;;19.75;60.08;102826.81;10448226;28;20048;-82
2021/08/31 20:43:41;;;;;;;16.05;5.88;;;;;;;19.60;59.37;102795.91;10450015;28;20057;-82
2021/08/31 20:48:42;;;;;;;11.77;4.55;;;;;;;19.51;59.51;102787.88;10449544;28;20044;-81
2021/08/31 20:53:42;;;;;;;19.17;5.43;;;;;;;19.93;59.48;102840.75;10435050;28;20055;-83
2021/08/31 20:58:43;;;;;;;9.52;4.22;;;;;;;19.46;58.78;102773.06;10450196;28;20135;-81
2021/08/31 21:03:43;;;;;;;18.98;5.15;;;;;;;19.88;58.75;102831.47;10433667;28;20382;-81
2021/08/31 21:08:44;;;;;;;11.52;4.63;;;;;;;19.64;58.71;102792.56;10535422;28;20050;-82
2021/08/31 21:13:54;;;;;;;7.05;4.30;;;;;;;19.95;59.21;102837.81;10560467;28;20409;-80
2021/08/31 21:18:55;;;;;;;9.88;4.68;;;;;;;19.98;59.02;102837.38;10560581;28;20024;-81
2021/08/31 21:23:55;;;;;;;13.98;4.40;;;;;;;19.98;58.88;102842.88;10577938;28;20535;-80
2021/08/31 21:28:59;;;;;;;10.55;3.40;;;;;;;19.94;59.13;102838.84;10558444;28;20031;-81
2021/08/31 21:33:59;;;;;;;11.95;4.63;;;;;;;19.39;60.12;102766.72;10577465;28;20062;-81
2021/08/31 21:39:00;;;;;;;7.32;3.67;;;;;;;20.00;59.20;102853.66;10541895;28;20097;-82
2021/08/31 21:44:00;;;;;;;8.70;4.30;;;;;;;19.71;59.35;102823.63;10560632;28;20059;-81
2021/08/31 21:49:02;;;;;;;14.10;3.70;;;;;;;19.95;60.31;102860.63;10577419;28;20374;-81
2021/08/31 21:54:02;;;;;;;10.40;4.32;;;;;;;19.85;59.81;102864.88;10575078;28;20046;-81
2021/08/31 21:59:03;;;;;;;10.73;4.28;;;;;;;19.85;59.70;102867.63;10557194;28;20023;-81
2021/08/31 22:04:09;;;;;;;17.52;4.93;;;;;;;19.80;59.40;102857.25;10578400;28;20089;-81
2021/08/31 22:09:09;;;;;;;16.48;4.47;;;;;;;19.90;59.84;102879.66;10578551;28;20412;-81
2021/08/31 22:14:10;;;;;;;23.70;6.40;;;;;;;19.66;59.00;102852.81;10563798;28;20035;-81
2021/08/31 22:19:10;;;;;;;8.90;4.60;;;;;;;19.83;59.27;102878.81;10564040;28;20078;-81
2021/08/31 22:24:11;;;;;;;14.15;4.45;;;;;;;19.87;59.42;102874.59;10563839;28;20031;-81
2021/08/31 22:29:11;;;;;;;7.97;3.50;;;;;;;19.93;59.20;102879.25;10563819;28;20035;-81
2021/08/31 22:34:12;;;;;;;18.55;5.03;;;;;;;19.93;59.03;102881.16;10563682;28;20032;-81
2021/08/31 22:39:12;;;;;;;10.18;4.38;;;;;;;19.85;59.29;102879.47;10580790;28;20060;-81
2021/08/31 22:44:16;;;;;;;11.60;3.90;;;;;;;19.82;60.11;102887.31;10581716;28;20090;-82
2021/08/31 22:49:17;;;;;;;21.48;4.40;;;;;;;19.71;60.11;102881.34;10566009;28;20066;-81
2021/08/31 22:54:17;;;;;;;6.43;3.58;;;;;;;19.66;60.46;102886.66;10591141;28;20119;-81
2021/08/31 22:59:20;;;;;;;13.57;4.20;;;;;;;19.70;60.36;102885.16;10589925;28;20063;-81
2021/08/31 23:04:21;;;;;;;9.35;4.50;;;;;;;19.66;59.43;102883.06;10555448;28;20069;-81
2021/08/31 23:09:21;;;;;;;9.75;3.50;;;;;;;19.59;58.45;102890.41;10569966;28;20043;-81
2021/08/31 23:14:23;;;;;;;13.25;4.65;;;;;;;19.12;59.91;102827.13;10588949;28;20130;-81
2021/08/31 23:19:24;;;;;;;6.68;2.42;;;;;;;19.64;59.33;102877.75;10588958;28;20444;-81
2021/08/31 23:24:24;;;;;;;13.85;3.40;;;;;;;18.47;59.13;102683.97;10588492;28;20088;-81